Time;durP1;ratioP1;P1;durP2;ratioP2;P2;SDS_P1;SDS_P2;PMS_P1;PMS_P2;Temp;Humidity;BMP_temperature;BMP_pressure;BME280_temperature;BME280_humidity;BME280_pressure;Samples;Min_cycle;Max_cycle;Signal;HPM_P1;HPM_P2
2022/05/06 00:01:20;;;;;;;4.20;3.90;;;10.20;99.90;;;;;;484011;245;28059;-72
2022/05/06 00:03:22;;;;;;;4.17;3.87;;;10.30;99.90;;;;;;484031;245;28000;-71
2022/05/06 00:05:23;;;;;;;4.50;4.10;;;10.30;99.90;;;;;;483952;244;27998;-72
2022/05/06 00:07:24;;;;;;;5.03;3.97;;;10.30;99.90;;;;;;484013;245;28005;-72
2022/05/06 00:09:25;;;;;;;4.00;3.60;;;10.30;99.90;;;;;;484007;246;28032;-71
2022/05/06 00:11:27;;;;;;;4.70;4.30;;;10.30;99.90;;;;;;484027;245;28124;-70
2022/05/06 00:13:28;;;;;;;5.13;4.47;;;10.30;99.90;;;;;;484011;245;27986;-71
2022/05/06 00:15:29;;;;;;;4.23;3.83;;;10.30;99.90;;;;;;483994;245;28462;-71
2022/05/06 00:17:30;;;;;;;4.67;4.17;;;10.30;99.90;;;;;;484021;244;28645;-73
2022/05/06 00:19:32;;;;;;;5.03;4.47;;;10.30;99.90;;;;;;484025;245;28702;-71
2022/05/06 00:21:33;;;;;;;5.30;4.27;;;10.30;99.90;;;;;;484016;245;28366;-72
2022/05/06 00:23:34;;;;;;;4.57;4.03;;;10.20;99.90;;;;;;484014;243;27971;-71
2022/05/06 00:25:35;;;;;;;4.43;4.10;;;10.20;99.90;;;;;;484021;245;28000;-71
2022/05/06 00:27:37;;;;;;;4.53;4.13;;;10.20;99.90;;;;;;483989;246;28080;-73
2022/05/06 00:29:39;;;;;;;4.60;4.10;;;10.30;99.90;;;;;;484021;246;27957;-71
2022/05/06 00:31:40;;;;;;;3.77;3.47;;;10.30;99.90;;;;;;484028;245;27929;-70
2022/05/06 00:33:43;;;;;;;4.67;4.27;;;10.30;99.90;;;;;;484012;245;28037;-71
2022/05/06 00:35:43;;;;;;;4.10;3.80;;;10.20;99.90;;;;;;483957;246;28520;-73
2022/05/06 00:37:44;;;;;;;4.10;3.70;;;10.20;99.90;;;;;;484025;245;28415;-71
2022/05/06 00:39:46;;;;;;;4.30;3.90;;;10.20;99.90;;;;;;483988;246;28449;-71
2022/05/06 00:41:47;;;;;;;4.53;4.10;;;10.20;99.90;;;;;;483887;245;28223;-70
2022/05/06 00:43:49;;;;;;;4.30;3.90;;;10.20;99.90;;;;;;483875;245;28272;-73
2022/05/06 00:45:53;;;;;;;4.60;4.20;;;10.20;99.90;;;;;;483866;245;28579;-71
2022/05/06 00:47:51;;;;;;;4.53;4.03;;;10.20;99.90;;;;;;483715;246;28233;-72
2022/05/06 00:49:52;;;;;;;4.30;3.90;;;10.20;99.90;;;;;;483995;246;28265;-70
2022/05/06 00:51:54;;;;;;;4.90;4.40;;;10.20;99.90;;;;;;484020;245;28111;-70
2022/05/06 00:53:55;;;;;;;4.37;4.00;;;10.20;99.90;;;;;;483953;246;27967;-74
2022/05/06 00:55:56;;;;;;;5.20;4.53;;;10.10;99.90;;;;;;484000;246;28133;-71
2022/05/06 00:57:57;;;;;;;4.27;3.90;;;10.10;99.90;;;;;;484008;245;27922;-71
2022/05/06 01:02:19;;;;;;;5.53;4.93;;;10.00;99.90;;;;;;483999;245;27779;-71
2022/05/06 01:04:19;;;;;;;5.30;4.57;;;10.00;99.90;;;;;;483939;246;28226;-73
2022/05/06 01:06:20;;;;;;;4.70;4.30;;;10.10;99.90;;;;;;484022;245;27957;-71
2022/05/06 01:08:22;;;;;;;4.57;4.20;;;10.10;99.90;;;;;;483953;246;28135;-71
2022/05/06 01:10:23;;;;;;;5.53;4.60;;;10.10;99.90;;;;;;484016;246;28423;-71
2022/05/06 01:12:24;;;;;;;4.57;4.17;;;10.10;99.90;;;;;;484013;245;28168;-71
2022/05/06 01:14:25;;;;;;;4.47;4.07;;;10.10;99.90;;;;;;484018;245;27907;-72
2022/05/06 01:16:27;;;;;;;4.73;4.33;;;10.10;99.90;;;;;;484003;245;27963;-71
2022/05/06 01:18:28;;;;;;;4.63;4.23;;;10.10;99.90;;;;;;484027;245;28005;-71
2022/05/06 01:20:29;;;;;;;4.77;4.20;;;10.10;99.90;;;;;;484003;245;27991;-71
2022/05/06 01:22:31;;;;;;;4.50;4.10;;;10.10;99.90;;;;;;484018;246;27846;-71
2022/05/06 01:24:32;;;;;;;4.80;4.40;;;10.10;99.90;;;;;;484037;241;28112;-74
2022/05/06 01:26:33;;;;;;;4.57;4.17;;;10.00;99.90;;;;;;484039;246;27968;-71
2022/05/06 01:28:35;;;;;;;5.40;4.90;;;10.00;99.90;;;;;;484039;245;27662;-71
2022/05/06 01:30:36;;;;;;;4.43;3.97;;;10.00;99.90;;;;;;484028;245;28052;-71
2022/05/06 01:32:37;;;;;;;5.50;4.77;;;10.00;99.90;;;;;;483989;245;28706;-70
2022/05/06 01:34:38;;;;;;;4.60;4.20;;;10.00;99.90;;;;;;484032;246;28365;-73
2022/05/06 01:36:39;;;;;;;5.60;4.50;;;10.00;99.90;;;;;;484003;246;28069;-71
2022/05/06 01:38:41;;;;;;;4.60;4.20;;;10.00;99.90;;;;;;484004;245;27521;-71
2022/05/06 01:40:42;;;;;;;4.57;4.10;;;10.00;99.90;;;;;;484043;245;28201;-71
2022/05/06 01:42:43;;;;;;;4.87;4.47;;;10.00;99.90;;;;;;484044;246;28432;-71
2022/05/06 01:44:45;;;;;;;5.23;4.73;;;10.00;99.90;;;;;;484049;246;28387;-72
2022/05/06 01:46:46;;;;;;;4.67;3.67;;;10.00;99.90;;;;;;484044;245;28431;-71
2022/05/06 01:48:47;;;;;;;4.57;4.20;;;10.00;99.90;;;;;;484039;246;27999;-71
2022/05/06 01:50:48;;;;;;;4.33;3.83;;;10.00;99.90;;;;;;484029;243;27967;-70
2022/05/06 01:52:52;;;;;;;4.73;4.33;;;10.00;99.90;;;;;;484041;243;27610;-71
2022/05/06 01:54:53;;;;;;;4.50;4.10;;;10.00;99.90;;;;;;484042;245;28437;-70
2022/05/06 01:56:55;;;;;;;4.57;4.20;;;10.00;99.90;;;;;;484036;245;28236;-74
2022/05/06 01:58:56;;;;;;;4.10;3.80;;;10.00;99.90;;;;;;484047;246;28627;-71
2022/05/06 02:00:57;;;;;;;4.60;4.20;;;9.90;99.90;;;;;;484047;245;27943;-71
2022/05/06 02:02:58;;;;;;;4.43;4.00;;;9.90;99.90;;;;;;484029;246;28090;-70
2022/05/06 02:05:19;;;;;;;4.87;4.43;;;9.90;99.90;;;;;;484042;246;28019;-71
2022/05/06 02:07:19;;;;;;;4.80;4.10;;;9.80;99.90;;;;;;483990;245;27659;-71
2022/05/06 02:09:21;;;;;;;4.77;4.33;;;9.80;99.90;;;;;;484021;245;27973;-72
2022/05/06 02:11:22;;;;;;;4.10;3.77;;;9.80;99.90;;;;;;483997;245;28051;-71
2022/05/06 02:13:23;;;;;;;4.50;4.10;;;9.80;99.90;;;;;;484035;245;28056;-72
2022/05/06 02:15:24;;;;;;;5.67;4.60;;;9.80;99.90;;;;;;484031;245;27994;-71
2022/05/06 02:17:26;;;;;;;4.80;4.40;;;9.80;99.90;;;;;;484043;245;28061;-71
2022/05/06 02:19:27;;;;;;;4.73;4.27;;;9.80;99.90;;;;;;484028;246;28004;-70
2022/05/06 02:21:28;;;;;;;4.30;3.90;;;9.80;99.90;;;;;;484020;245;27966;-71
2022/05/06 02:23:29;;;;;;;5.00;4.60;;;9.70;99.90;;;;;;483961;245;28018;-74
2022/05/06 02:25:31;;;;;;;5.30;4.33;;;9.70;99.90;;;;;;484042;245;28076;-71
2022/05/06 02:27:32;;;;;;;4.80;4.27;;;9.60;99.90;;;;;;484042;245;28039;-71
2022/05/06 02:29:33;;;;;;;4.87;4.47;;;9.60;99.90;;;;;;484045;244;28085;-71
2022/05/06 02:33:54;;;;;;;5.37;4.87;;;9.60;99.90;;;;;;484023;246;27672;-71
2022/05/06 02:35:55;;;;;;;5.03;4.63;;;9.60;99.90;;;;;;483948;246;28176;-70
2022/05/06 02:37:56;;;;;;;4.37;3.97;;;9.60;99.90;;;;;;484051;241;28077;-70
2022/05/06 02:39:58;;;;;;;4.77;4.37;;;9.60;99.90;;;;;;484026;246;27937;-70
2022/05/06 02:41:59;;;;;;;6.10;4.40;;;9.60;99.90;;;;;;484035;245;28394;-70
2022/05/06 02:44:02;;;;;;;5.20;4.70;;;9.60;99.90;;;;;;483936;245;28504;-73
2022/05/06 02:46:01;;;;;;;5.63;5.13;;;9.60;99.90;;;;;;483959;245;28394;-71
2022/05/06 02:48:03;;;;;;;4.67;4.30;;;9.60;99.90;;;;;;484019;245;28575;-71
2022/05/06 02:50:04;;;;;;;4.90;4.50;;;9.60;99.90;;;;;;484030;246;28807;-70
2022/05/06 02:52:06;;;;;;;4.90;4.30;;;9.60;99.90;;;;;;484058;245;27833;-71
2022/05/06 02:54:07;;;;;;;4.63;4.23;;;9.60;99.90;;;;;;484036;245;27777;-71
2022/05/06 02:56:08;;;;;;;5.13;4.73;;;9.60;99.90;;;;;;483778;246;27721;-71
2022/05/06 02:58:09;;;;;;;5.10;4.53;;;9.60;99.90;;;;;;483907;245;28078;-71
2022/05/06 03:00:10;;;;;;;4.80;4.40;;;9.50;99.90;;;;;;484053;245;27743;-71
2022/05/06 03:02:11;;;;;;;5.10;4.60;;;9.50;99.90;;;;;;484059;245;27838;-71
2022/05/06 03:04:13;;;;;;;4.13;3.83;;;9.50;99.90;;;;;;484050;245;27963;-72
2022/05/06 03:06:14;;;;;;;4.47;4.07;;;9.50;99.90;;;;;;484053;246;27599;-70
2022/05/06 03:08:15;;;;;;;5.70;5.10;;;9.50;99.90;;;;;;484047;246;28004;-71
2022/05/06 03:10:16;;;;;;;4.37;4.07;;;9.50;99.90;;;;;;484063;244;27965;-70
2022/05/06 03:12:17;;;;;;;4.97;4.57;;;9.50;99.90;;;;;;484047;246;27619;-71
2022/05/06 03:14:19;;;;;;;5.33;4.83;;;9.50;99.90;;;;;;484067;245;28022;-72
2022/05/06 03:16:20;;;;;;;4.80;4.30;;;9.50;99.90;;;;;;484052;246;27723;-71
2022/05/06 03:18:21;;;;;;;4.77;4.37;;;9.50;99.90;;;;;;484053;245;27968;-71
2022/05/06 03:20:22;;;;;;;5.03;4.40;;;9.50;99.90;;;;;;484017;244;28454;-70
2022/05/06 03:22:24;;;;;;;4.90;4.37;;;9.50;99.90;;;;;;484018;246;28430;-71
2022/05/06 03:24:25;;;;;;;5.60;4.60;;;9.40;99.90;;;;;;484031;246;28241;-75
2022/05/06 03:26:26;;;;;;;5.20;4.70;;;9.40;99.90;;;;;;484042;245;28591;-71
2022/05/06 03:28:27;;;;;;;4.70;4.30;;;9.40;99.90;;;;;;484009;246;28501;-71
2022/05/06 03:30:29;;;;;;;5.00;4.50;;;9.40;99.90;;;;;;484019;245;27961;-70
2022/05/06 03:32:31;;;;;;;6.00;5.20;;;9.40;99.90;;;;;;484033;246;28052;-70
2022/05/06 03:34:31;;;;;;;4.53;4.13;;;9.40;99.90;;;;;;483965;245;28102;-73
2022/05/06 03:36:35;;;;;;;4.83;4.43;;;9.40;99.90;;;;;;484026;246;28230;-71
2022/05/06 03:38:37;;;;;;;4.37;3.97;;;9.40;99.90;;;;;;484008;246;27821;-70
2022/05/06 03:40:38;;;;;;;5.00;4.50;;;9.30;99.90;;;;;;484031;245;27982;-70
2022/05/06 03:42:39;;;;;;;5.40;4.90;;;9.30;99.90;;;;;;484059;246;27973;-70
2022/05/06 03:44:40;;;;;;;5.80;5.20;;;9.30;99.90;;;;;;484039;245;28430;-71
2022/05/06 03:46:42;;;;;;;6.40;5.10;;;9.20;99.90;;;;;;484029;245;29243;-73
2022/05/06 03:48:43;;;;;;;4.40;4.00;;;9.20;99.90;;;;;;484003;246;28486;-70
2022/05/06 03:53:06;;;;;;;5.00;4.60;;;9.10;99.90;;;;;;484028;246;28471;-73
2022/05/06 03:55:05;;;;;;;4.97;4.47;;;9.00;99.90;;;;;;483906;246;28414;-71
2022/05/06 03:57:06;;;;;;;5.30;4.70;;;9.00;99.90;;;;;;483985;245;28076;-71
2022/05/06 03:59:08;;;;;;;5.07;4.57;;;9.00;99.90;;;;;;484007;246;27829;-70
2022/05/06 04:01:09;;;;;;;4.87;4.47;;;9.00;99.90;;;;;;484026;245;28105;-70
2022/05/06 04:03:10;;;;;;;5.70;5.17;;;8.90;99.90;;;;;;484022;246;28226;-73
2022/05/06 04:05:11;;;;;;;6.07;5.23;;;8.80;99.90;;;;;;483990;246;27992;-71
2022/05/06 04:07:14;;;;;;;6.00;5.40;;;8.80;99.90;;;;;;484045;245;27989;-71
2022/05/06 04:09:14;;;;;;;8.33;5.67;;;8.80;99.90;;;;;;483931;246;27767;-70
2022/05/06 04:11:17;;;;;;;6.50;5.90;;;8.70;99.90;;;;;;484026;245;27894;-70
2022/05/06 04:13:18;;;;;;;5.60;5.10;;;8.70;99.90;;;;;;483669;246;28126;-74
2022/05/06 04:15:18;;;;;;;4.70;4.30;;;8.70;99.90;;;;;;483914;246;27911;-71
2022/05/06 04:17:20;;;;;;;5.23;4.57;;;8.70;99.90;;;;;;484022;245;27923;-71
2022/05/06 04:19:20;;;;;;;4.40;4.00;;;8.60;99.90;;;;;;483912;246;28126;-71
2022/05/06 04:23:41;;;;;;;6.37;4.90;;;8.60;99.90;;;;;;484004;245;28565;-71
2022/05/06 04:25:42;;;;;;;4.70;4.30;;;8.60;99.90;;;;;;484015;246;28514;-70
2022/05/06 04:27:43;;;;;;;5.10;4.60;;;8.50;99.90;;;;;;484024;245;27669;-71
2022/05/06 04:29:44;;;;;;;5.10;4.60;;;8.50;99.90;;;;;;484037;245;28100;-70
2022/05/06 04:31:46;;;;;;;4.87;4.33;;;8.50;99.90;;;;;;484032;245;27856;-70
2022/05/06 04:33:47;;;;;;;5.40;4.90;;;8.50;99.90;;;;;;484014;244;28091;-70
2022/05/06 04:35:48;;;;;;;6.03;5.50;;;8.40;99.90;;;;;;484022;245;27951;-71
2022/05/06 04:37:49;;;;;;;5.20;4.80;;;8.50;99.90;;;;;;484024;245;27988;-71
2022/05/06 04:39:51;;;;;;;6.70;6.10;;;8.40;99.90;;;;;;484025;245;28020;-70
2022/05/06 04:41:52;;;;;;;7.27;6.67;;;8.40;99.90;;;;;;484007;246;28070;-71
2022/05/06 04:43:53;;;;;;;5.90;5.50;;;8.40;99.90;;;;;;483964;245;28047;-71
2022/05/06 04:45:54;;;;;;;5.07;4.67;;;8.40;99.90;;;;;;484033;246;27945;-71
2022/05/06 04:47:56;;;;;;;5.07;4.67;;;8.50;99.90;;;;;;483985;246;27714;-70
2022/05/06 04:49:57;;;;;;;5.20;4.80;;;8.50;99.90;;;;;;484035;245;28332;-73
2022/05/06 04:51:58;;;;;;;5.60;5.20;;;8.40;99.90;;;;;;483968;246;28097;-71
2022/05/06 04:54:00;;;;;;;5.13;4.83;;;8.40;99.90;;;;;;484034;245;27647;-72
2022/05/06 04:56:01;;;;;;;5.50;5.07;;;8.40;99.90;;;;;;484019;245;28534;-70
2022/05/06 04:58:02;;;;;;;5.33;4.93;;;8.40;99.90;;;;;;483901;246;28468;-71
2022/05/06 05:00:03;;;;;;;5.53;5.13;;;8.40;99.90;;;;;;483853;246;28555;-70
2022/05/06 05:02:04;;;;;;;6.80;6.30;;;8.40;99.90;;;;;;484026;246;28416;-71
2022/05/06 05:04:06;;;;;;;7.67;6.57;;;8.40;99.90;;;;;;484031;245;28560;-72
2022/05/06 05:06:07;;;;;;;8.30;7.00;;;8.50;99.90;;;;;;484017;245;27983;-71
2022/05/06 05:08:09;;;;;;;7.07;5.90;;;8.60;99.90;;;;;;484017;245;28068;-71
2022/05/06 05:10:09;;;;;;;6.47;5.87;;;8.60;99.90;;;;;;484022;245;28056;-71
2022/05/06 05:12:11;;;;;;;6.40;5.30;;;8.60;99.90;;;;;;484042;245;28022;-71
2022/05/06 05:14:12;;;;;;;7.20;6.60;;;8.60;99.90;;;;;;484021;245;28016;-72
2022/05/06 05:16:13;;;;;;;7.07;5.77;;;8.60;99.90;;;;;;484030;245;28506;-71
2022/05/06 05:18:14;;;;;;;9.70;5.50;;;8.60;99.90;;;;;;484020;246;28007;-70
2022/05/06 05:20:16;;;;;;;5.90;5.40;;;8.60;99.90;;;;;;484017;241;28084;-71
2022/05/06 05:22:18;;;;;;;6.30;5.70;;;8.60;99.90;;;;;;484036;244;28033;-70
2022/05/06 05:24:18;;;;;;;6.43;5.83;;;8.60;99.90;;;;;;483983;246;28015;-72
2022/05/06 05:26:19;;;;;;;5.90;5.40;;;8.70;99.90;;;;;;484030;244;28063;-71
2022/05/06 05:28:21;;;;;;;6.33;5.73;;;8.70;99.90;;;;;;484038;245;28123;-71
2022/05/06 05:30:22;;;;;;;6.00;5.50;;;8.70;99.90;;;;;;484033;246;28010;-70
2022/05/06 05:32:23;;;;;;;5.17;4.77;;;8.60;99.90;;;;;;484013;244;28012;-71
2022/05/06 05:34:25;;;;;;;5.90;5.40;;;8.60;99.90;;;;;;484011;245;28666;-73
2022/05/06 05:36:26;;;;;;;5.30;4.90;;;8.70;99.90;;;;;;483980;246;28490;-70
2022/05/06 05:38:27;;;;;;;5.27;4.87;;;8.80;99.90;;;;;;484011;246;28482;-71
2022/05/06 05:40:28;;;;;;;4.73;4.43;;;8.90;99.90;;;;;;483995;246;28483;-70
2022/05/06 05:42:29;;;;;;;3.90;3.70;;;8.90;99.90;;;;;;484025;244;28558;-71
2022/05/06 05:49:10;;;;;;;4.70;4.40;;;9.00;99.90;;;;;;484031;246;28061;-70
2022/05/06 05:51:11;;;;;;;6.10;5.60;;;9.00;99.90;;;;;;484040;246;28125;-71
2022/05/06 05:53:12;;;;;;;7.20;6.50;;;9.10;99.90;;;;;;484050;245;28023;-71
2022/05/06 05:55:14;;;;;;;9.00;7.20;;;9.40;99.90;;;;;;484013;246;28112;-71
2022/05/06 05:57:15;;;;;;;9.60;7.87;;;9.90;99.90;;;;;;484031;245;27714;-70
2022/05/06 05:59:16;;;;;;;8.63;7.53;;;10.10;99.90;;;;;;484036;245;27752;-70
2022/05/06 06:01:17;;;;;;;9.23;7.30;;;10.20;99.90;;;;;;484019;246;28144;-71
2022/05/06 06:03:19;;;;;;;9.27;7.53;;;10.40;99.90;;;;;;484028;246;28525;-71
2022/05/06 06:05:20;;;;;;;9.60;7.40;;;10.50;99.90;;;;;;484046;245;28356;-71
2022/05/06 06:07:21;;;;;;;14.97;7.60;;;10.60;99.90;;;;;;484048;246;27752;-73
2022/05/06 06:09:22;;;;;;;9.10;7.37;;;10.70;99.90;;;;;;484029;246;28425;-70
2022/05/06 06:11:24;;;;;;;9.33;6.57;;;10.60;99.90;;;;;;484046;245;28485;-71
2022/05/06 06:13:25;;;;;;;7.50;6.80;;;10.70;99.90;;;;;;484051;241;28612;-70
2022/05/06 06:15:26;;;;;;;8.30;7.20;;;10.80;99.90;;;;;;484050;245;28589;-73
2022/05/06 06:17:28;;;;;;;9.07;7.20;;;10.90;99.90;;;;;;484043;244;27752;-71
2022/05/06 06:19:29;;;;;;;7.93;6.37;;;11.00;99.90;;;;;;484001;246;27917;-71
2022/05/06 06:21:30;;;;;;;7.70;6.50;;;11.00;99.90;;;;;;484053;245;28179;-72
2022/05/06 06:23:31;;;;;;;10.00;6.93;;;11.00;99.90;;;;;;484033;246;27961;-71
2022/05/06 06:25:33;;;;;;;7.30;6.50;;;11.10;99.90;;;;;;484033;246;27994;-70
2022/05/06 06:27:34;;;;;;;7.73;6.60;;;11.10;99.90;;;;;;484048;245;28119;-74
2022/05/06 06:29:35;;;;;;;8.00;6.80;;;11.20;99.90;;;;;;484022;246;28084;-71
2022/05/06 06:31:37;;;;;;;7.27;6.37;;;11.20;99.90;;;;;;484006;245;28017;-72
2022/05/06 06:33:40;;;;;;;7.00;6.30;;;11.20;99.90;;;;;;483973;246;28553;-71
2022/05/06 06:35:42;;;;;;;7.07;6.33;;;11.30;99.90;;;;;;484027;245;29350;-71
2022/05/06 06:37:43;;;;;;;9.07;6.10;;;11.30;99.90;;;;;;484036;246;28309;-71
2022/05/06 06:39:44;;;;;;;7.00;5.77;;;11.30;99.90;;;;;;484048;245;28017;-73
2022/05/06 06:41:46;;;;;;;8.30;5.63;;;11.30;99.90;;;;;;483987;243;27973;-71
2022/05/06 06:43:47;;;;;;;7.27;5.83;;;11.30;99.90;;;;;;484014;246;27643;-71
2022/05/06 06:45:48;;;;;;;7.77;6.10;;;11.40;99.90;;;;;;484035;245;28038;-70
2022/05/06 06:47:49;;;;;;;7.47;5.90;;;11.40;99.90;;;;;;484036;246;27858;-74
2022/05/06 06:49:50;;;;;;;7.30;5.60;;;11.50;99.90;;;;;;484051;246;28045;-73
2022/05/06 06:51:52;;;;;;;6.60;5.67;;;11.50;99.90;;;;;;483620;241;28331;-71
2022/05/06 06:53:56;;;;;;;5.90;5.40;;;11.50;99.90;;;;;;483684;246;28017;-72
2022/05/06 06:55:54;;;;;;;7.50;6.13;;;11.60;99.90;;;;;;483635;246;27875;-70
2022/05/06 06:57:55;;;;;;;6.00;5.00;;;11.70;99.90;;;;;;484019;246;28238;-71
2022/05/06 06:59:57;;;;;;;5.93;5.07;;;11.60;99.90;;;;;;483952;245;28449;-72
2022/05/06 07:01:58;;;;;;;5.67;5.10;;;11.70;99.90;;;;;;484030;245;28452;-71
2022/05/06 07:04:00;;;;;;;7.17;5.87;;;11.70;99.90;;;;;;483972;246;28047;-71
2022/05/06 07:12:58;;;;;;;5.93;5.03;;;11.90;99.90;;;;;;484021;245;29400;-71
2022/05/06 07:15:01;;;;;;;9.63;5.53;;;12.00;99.90;;;;;;484050;245;28419;-71
2022/05/06 07:17:02;;;;;;;4.27;3.87;;;12.10;99.90;;;;;;483938;246;28464;-75
2022/05/06 07:19:02;;;;;;;7.13;4.83;;;12.10;99.90;;;;;;484040;245;27965;-71
2022/05/06 07:21:04;;;;;;;8.50;5.07;;;12.20;99.90;;;;;;484045;246;28225;-71
2022/05/06 07:23:05;;;;;;;5.20;4.30;;;12.20;99.90;;;;;;484030;246;28087;-71
2022/05/06 07:25:06;;;;;;;7.63;5.10;;;12.30;99.90;;;;;;484064;245;28175;-71
2022/05/06 07:27:08;;;;;;;5.80;4.90;;;12.40;99.90;;;;;;484032;245;28037;-73
2022/05/06 07:29:09;;;;;;;5.13;4.50;;;12.50;99.90;;;;;;484000;246;28501;-71
2022/05/06 07:31:10;;;;;;;5.03;4.30;;;12.50;99.90;;;;;;484033;245;28108;-71
2022/05/06 07:33:11;;;;;;;5.10;4.70;;;12.50;99.90;;;;;;484049;245;28068;-71
2022/05/06 07:35:12;;;;;;;4.57;4.27;;;12.60;99.90;;;;;;484034;246;28223;-71
2022/05/06 07:37:14;;;;;;;4.47;4.17;;;12.50;99.90;;;;;;484030;246;28701;-71
2022/05/06 07:39:15;;;;;;;5.33;4.70;;;12.60;99.90;;;;;;484025;246;28830;-71
2022/05/06 07:41:16;;;;;;;8.90;4.63;;;12.60;99.90;;;;;;484022;245;28712;-71
2022/05/06 07:43:17;;;;;;;6.80;4.43;;;12.70;99.90;;;;;;483998;246;29765;-71
2022/05/06 07:45:19;;;;;;;5.13;4.73;;;12.60;99.90;;;;;;484035;246;28307;-71
2022/05/06 07:47:20;;;;;;;5.30;4.80;;;12.70;99.90;;;;;;484051;245;28204;-72
2022/05/06 07:49:23;;;;;;;6.00;4.37;;;12.70;99.90;;;;;;484006;246;28597;-71
2022/05/06 07:51:22;;;;;;;5.07;4.27;;;12.80;99.90;;;;;;483956;245;28341;-72
2022/05/06 07:53:24;;;;;;;4.83;3.77;;;13.00;99.90;;;;;;484022;245;28503;-71
2022/05/06 07:55:25;;;;;;;5.10;4.70;;;13.10;99.90;;;;;;484010;246;28557;-71
2022/05/06 07:57:26;;;;;;;7.70;4.70;;;13.10;99.90;;;;;;484008;245;28353;-72
2022/05/06 07:59:27;;;;;;;5.90;4.83;;;13.20;99.90;;;;;;484037;244;28466;-71
2022/05/06 08:06:08;;;;;;;6.20;5.57;;;13.20;99.90;;;;;;484015;246;28327;-71
2022/05/06 08:08:09;;;;;;;6.30;5.70;;;13.20;99.90;;;;;;484012;245;28358;-71
2022/05/06 08:10:10;;;;;;;6.20;5.37;;;13.40;99.90;;;;;;484018;246;28512;-71
2022/05/06 08:12:13;;;;;;;6.03;5.30;;;13.50;99.90;;;;;;484025;245;28646;-71
2022/05/06 08:14:13;;;;;;;6.00;5.30;;;13.40;99.90;;;;;;483925;246;28935;-73
2022/05/06 08:16:14;;;;;;;6.00;5.40;;;13.40;99.90;;;;;;484037;245;29041;-71
2022/05/06 08:18:15;;;;;;;6.30;5.70;;;13.60;99.90;;;;;;483980;245;28845;-71
2022/05/06 08:20:16;;;;;;;5.70;5.20;;;13.70;99.90;;;;;;483992;245;29471;-72
2022/05/06 08:22:18;;;;;;;7.60;5.80;;;13.60;99.90;;;;;;484027;245;28955;-70
2022/05/06 08:24:19;;;;;;;5.90;5.20;;;13.80;99.90;;;;;;484011;245;28563;-73
2022/05/06 08:26:21;;;;;;;6.00;4.80;;;13.90;99.90;;;;;;484032;245;28551;-71
2022/05/06 08:28:22;;;;;;;6.57;4.47;;;13.80;99.90;;;;;;484023;245;28355;-72
2022/05/06 08:30:23;;;;;;;5.73;4.80;;;14.00;99.90;;;;;;484020;246;28389;-71
2022/05/06 08:32:24;;;;;;;5.47;4.43;;;13.80;99.90;;;;;;484039;244;28344;-71
2022/05/06 08:34:25;;;;;;;5.20;4.70;;;13.80;99.90;;;;;;484005;246;28892;-71
2022/05/06 08:36:28;;;;;;;5.83;4.83;;;;;;;;;;483928;245;28536;-72
2022/05/06 08:38:30;;;;;;;5.93;5.33;;;14.20;99.90;;;;;;483887;245;26731;-71
2022/05/06 08:40:31;;;;;;;6.77;5.90;;;14.20;99.90;;;;;;483861;245;28355;-72
2022/05/06 08:42:31;;;;;;;9.10;5.77;;;14.20;99.90;;;;;;483846;245;28099;-73
2022/05/06 08:51:15;;;;;;;10.80;5.27;;;14.20;99.90;;;;;;485445;245;28352;-74
2022/05/06 08:53:17;;;;;;;5.77;5.20;;;14.30;99.90;;;;;;483978;246;28783;-71
2022/05/06 08:55:18;;;;;;;4.83;4.43;;;14.40;99.90;;;;;;483996;245;28730;-71
2022/05/06 08:57:20;;;;;;;4.93;4.43;;;;;;;;;;483978;245;28680;-71
2022/05/06 08:59:22;;;;;;;4.60;4.00;;;14.40;99.90;;;;;;484076;245;27205;-72
2022/05/06 09:01:23;;;;;;;5.70;4.07;;;14.40;99.90;;;;;;483952;246;28284;-71
2022/05/06 09:03:24;;;;;;;4.63;4.20;;;14.60;99.90;;;;;;483922;245;28396;-72
2022/05/06 09:05:25;;;;;;;6.17;4.93;;;14.60;99.90;;;;;;483972;245;28783;-71
2022/05/06 09:07:27;;;;;;;9.10;4.40;;;14.70;99.90;;;;;;483969;244;28784;-71
2022/05/06 09:09:28;;;;;;;4.67;4.27;;;14.80;99.90;;;;;;483994;245;28949;-72
2022/05/06 09:13:48;;;;;;;5.30;4.80;;;14.50;99.90;;;;;;483956;246;28951;-71
2022/05/06 09:18:09;;;;;;;5.83;4.57;;;14.50;99.90;;;;;;483971;246;28440;-71
2022/05/06 09:20:11;;;;;;;7.03;4.13;;;14.60;99.90;;;;;;483972;245;28406;-71
2022/05/06 09:22:13;;;;;;;4.30;3.90;;;14.60;99.90;;;;;;483994;245;28591;-71
2022/05/06 09:24:13;;;;;;;8.93;4.40;;;14.60;99.90;;;;;;483975;245;28195;-71
2022/05/06 09:26:14;;;;;;;8.60;4.73;;;14.50;99.90;;;;;;483991;245;28803;-72
2022/05/06 09:28:16;;;;;;;5.03;4.60;;;14.60;99.90;;;;;;483981;245;28907;-71
2022/05/06 09:30:17;;;;;;;8.90;3.93;;;14.70;99.90;;;;;;483994;245;28879;-71
2022/05/06 09:32:18;;;;;;;4.23;3.83;;;14.70;99.90;;;;;;484029;245;29179;-71
2022/05/06 09:34:19;;;;;;;6.73;3.70;;;14.70;99.90;;;;;;484048;245;28415;-71
2022/05/06 09:36:21;;;;;;;4.20;3.80;;;14.70;99.90;;;;;;484022;245;28330;-73
2022/05/06 09:38:22;;;;;;;4.00;3.70;;;14.70;99.90;;;;;;484051;245;28505;-72
2022/05/06 09:40:23;;;;;;;4.43;4.03;;;14.70;99.90;;;;;;483955;245;28577;-72
2022/05/06 09:42:24;;;;;;;4.73;3.77;;;14.80;99.90;;;;;;484024;245;28541;-71
2022/05/06 09:44:26;;;;;;;5.70;3.70;;;15.10;99.90;;;;;;484025;244;28588;-71
2022/05/06 09:46:27;;;;;;;3.40;3.20;;;15.40;99.90;;;;;;483978;245;28473;-72
2022/05/06 09:48:28;;;;;;;4.50;3.30;;;15.60;99.90;;;;;;483940;245;28850;-71
2022/05/06 09:50:29;;;;;;;4.50;3.37;;;15.70;99.90;;;;;;483979;245;28877;-72
2022/05/06 09:52:31;;;;;;;4.00;3.60;;;15.60;99.90;;;;;;484006;245;30054;-71
2022/05/06 09:54:32;;;;;;;4.53;3.43;;;15.70;99.90;;;;;;483971;245;29380;-72
2022/05/06 09:56:33;;;;;;;4.23;3.80;;;15.70;99.90;;;;;;483974;245;29345;-71
2022/05/06 09:58:34;;;;;;;5.87;3.30;;;15.80;99.90;;;;;;483996;245;28824;-71
2022/05/06 10:00:38;;;;;;;4.60;3.60;;;16.00;99.90;;;;;;483989;245;28981;-74
2022/05/06 10:02:38;;;;;;;5.17;3.80;;;15.90;99.90;;;;;;483867;246;28859;-71
2022/05/06 10:04:38;;;;;;;4.00;3.40;;;15.90;99.90;;;;;;483940;246;28858;-71
2022/05/06 10:06:39;;;;;;;3.27;2.97;;;15.80;99.90;;;;;;483996;245;28874;-71
2022/05/06 10:08:41;;;;;;;4.30;3.13;;;16.10;99.90;;;;;;484008;245;29313;-72
2022/05/06 10:10:42;;;;;;;3.63;3.30;;;16.40;99.90;;;;;;483991;245;29455;-72
2022/05/06 10:12:43;;;;;;;4.20;3.80;;;16.40;99.90;;;;;;484023;245;29288;-71
2022/05/06 10:14:44;;;;;;;3.80;3.50;;;16.30;99.90;;;;;;483884;245;28832;-72
2022/05/06 10:16:47;;;;;;;3.53;3.23;;;16.40;99.90;;;;;;484009;245;28863;-75
2022/05/06 10:18:47;;;;;;;6.53;3.60;;;16.10;99.90;;;;;;484007;245;28838;-71
2022/05/06 10:20:48;;;;;;;5.40;3.53;;;16.00;99.90;;;;;;484007;245;28880;-72
2022/05/06 10:22:49;;;;;;;4.30;3.23;;;16.00;99.90;;;;;;484021;245;28819;-71
2022/05/06 10:24:53;;;;;;;3.23;2.93;;;16.00;99.90;;;;;;483991;245;28875;-71
2022/05/06 10:26:52;;;;;;;3.47;3.17;;;16.40;99.90;;;;;;483882;246;28854;-73
2022/05/06 10:33:32;;;;;;;3.20;2.77;;;16.00;99.90;;;;;;483944;246;28911;-73
2022/05/06 10:35:34;;;;;;;2.83;2.63;;;16.00;99.90;;;;;;484007;245;28937;-71
2022/05/06 10:37:35;;;;;;;3.73;3.33;;;16.00;99.90;;;;;;483964;245;28788;-71
2022/05/06 10:39:36;;;;;;;4.73;3.40;;;16.00;99.90;;;;;;483912;245;28968;-75
2022/05/06 10:41:37;;;;;;;4.63;2.73;;;16.20;99.90;;;;;;483991;245;29318;-71
2022/05/06 10:43:39;;;;;;;2.87;2.70;;;16.00;99.90;;;;;;483990;245;29347;-71
2022/05/06 10:45:42;;;;;;;4.70;3.07;;;16.10;99.90;;;;;;483985;245;29372;-72
2022/05/06 10:47:41;;;;;;;3.90;3.40;;;16.10;99.90;;;;;;483847;246;28855;-71
2022/05/06 10:49:52;;;;;;;5.90;3.50;;;16.50;99.90;;;;;;484014;245;28869;-71
2022/05/06 10:51:53;;;;;;;5.53;3.30;;;16.90;99.90;;;;;;483991;245;28897;-72
2022/05/06 10:53:54;;;;;;;3.70;3.20;;;16.90;99.90;;;;;;483980;245;28930;-71
2022/05/06 10:55:55;;;;;;;5.60;3.37;;;16.80;99.90;;;;;;483960;245;28863;-72
2022/05/06 10:57:57;;;;;;;3.67;3.30;;;16.70;99.90;;;;;;484004;244;28909;-72
2022/05/06 10:59:58;;;;;;;3.50;2.67;;;16.60;99.90;;;;;;483950;245;28846;-72
2022/05/06 11:01:59;;;;;;;7.17;3.60;;;16.70;99.90;;;;;;483987;245;28880;-72
2022/05/06 11:04:00;;;;;;;4.80;3.10;;;16.70;99.90;;;;;;479804;245;28845;-72
2022/05/06 11:06:02;;;;;;;3.60;3.07;;;16.70;99.90;;;;;;477781;249;28829;-72
2022/05/06 11:08:03;;;;;;;3.50;3.10;;;16.70;99.90;;;;;;477795;249;29818;-71
2022/05/06 11:10:04;;;;;;;3.40;2.73;;;16.70;99.90;;;;;;477797;249;29190;-71
2022/05/06 11:12:06;;;;;;;3.27;2.97;;;16.50;99.90;;;;;;477804;249;29386;-72
2022/05/06 11:14:07;;;;;;;3.60;2.60;;;16.40;99.90;;;;;;477805;249;28890;-72
2022/05/06 11:16:09;;;;;;;3.60;3.30;;;16.40;99.90;;;;;;477784;249;28841;-75